Time;durP1;ratioP1;P1;durP2;ratioP2;P2;SDS_P1;SDS_P2;PMS_P1;PMS_P2;Temp;Humidity;BMP_temperature;BMP_pressure;BME280_temperature;BME280_humidity;BME280_pressure;Samples;Min_cycle;Max_cycle;Signal;HPM_P1;HPM_P2
2022/10/28 00:00:44;;;;;;;;;;;13.50;99.90;;;;;;5065677;28;19916;-76
2022/10/28 00:03:10;;;;;;;;;;;13.50;99.90;;;;;;5048406;28;19919;-77
2022/10/28 00:05:36;;;;;;;;;;;13.40;99.90;;;;;;5047982;28;19909;-76
2022/10/28 00:08:02;;;;;;;;;;;13.40;99.90;;;;;;5064374;28;19941;-76
2022/10/28 00:10:28;;;;;;;;;;;13.30;99.90;;;;;;5064642;28;19924;-77
2022/10/28 00:12:56;;;;;;;;;;;13.30;99.90;;;;;;5047802;28;19908;-77
2022/10/28 00:15:22;;;;;;;;;;;13.30;99.90;;;;;;5064458;28;19915;-76
2022/10/28 00:17:47;;;;;;;;;;;13.30;99.90;;;;;;5063971;28;20104;-76
2022/10/28 00:20:18;;;;;;;;;;;13.20;99.90;;;;;;5048242;28;19916;-77
2022/10/28 00:22:47;;;;;;;;;;;13.10;99.90;;;;;;5048303;28;19916;-77
2022/10/28 00:25:13;;;;;;;;;;;13.00;99.90;;;;;;5065523;28;19909;-77
2022/10/28 00:27:38;;;;;;;;;;;13.00;99.90;;;;;;5063835;28;19909;-77
2022/10/28 00:30:05;;;;;;;;;;;13.00;99.90;;;;;;5064337;28;19928;-77
2022/10/28 00:32:30;;;;;;;;;;;13.00;99.90;;;;;;5047079;28;19913;-77
2022/10/28 00:34:56;;;;;;;;;;;13.00;99.90;;;;;;5064463;28;19944;-77
2022/10/28 00:37:22;;;;;;;;;;;13.00;99.90;;;;;;5063752;28;20199;-77
2022/10/28 00:39:48;;;;;;;;;;;13.10;99.90;;;;;;5063998;28;19948;-77
2022/10/28 00:42:19;;;;;;;;;;;13.00;99.90;;;;;;5063881;28;20110;-77
2022/10/28 00:44:55;;;;;;;;;;;13.00;99.90;;;;;;5046808;28;19963;-77
2022/10/28 00:47:35;;;;;;;;;;;13.00;99.90;;;;;;5045586;28;19950;-77
2022/10/28 00:50:23;;;;;;;;;;;13.00;99.90;;;;;;5047225;28;19909;-76
2022/10/28 00:53:00;;;;;;;;;;;13.10;99.90;;;;;;5064174;28;19912;-77
2022/10/28 00:55:26;;;;;;;;;;;13.10;99.90;;;;;;5063658;28;19909;-77
2022/10/28 00:57:55;;;;;;;;;;;13.10;99.90;;;;;;5063351;28;19950;-77
2022/10/28 01:00:22;;;;;;;;;;;13.20;99.90;;;;;;5047211;28;19944;-77
2022/10/28 01:02:47;;;;;;;;;;;13.20;99.90;;;;;;5063301;28;20140;-76
2022/10/28 01:05:15;;;;;;;;;;;13.20;99.90;;;;;;5063883;28;19908;-76
2022/10/28 01:07:43;;;;;;;;;;;13.20;99.90;;;;;;5063246;28;19951;-76
2022/10/28 01:10:09;;;;;;;;;;;13.10;99.90;;;;;;5063408;28;20008;-76
2022/10/28 01:13:14;;;;;;;;;;;13.10;99.90;;;;;;5063319;28;19925;-76
2022/10/28 01:15:47;;;;;;;;;;;13.10;99.90;;;;;;5070959;28;20219;-76
2022/10/28 01:18:21;;;;;;;;;;;13.00;99.90;;;;;;5046418;28;19913;-77
2022/10/28 01:21:06;;;;;;;;;;;13.00;99.90;;;;;;5046625;28;20219;-76
2022/10/28 01:23:57;;;;;;;;;;;12.90;99.90;;;;;;5048555;28;20179;-76
2022/10/28 01:26:35;;;;;;;;;;;12.90;99.90;;;;;;5062968;28;19908;-76
2022/10/28 01:29:02;;;;;;;;;;;12.90;99.90;;;;;;5062882;28;20146;-77
2022/10/28 01:31:49;;;;;;;;;;;12.80;99.90;;;;;;5063765;28;20003;-77
2022/10/28 01:34:27;;;;;;;;;;;12.80;99.90;;;;;;5063115;28;19916;-76
2022/10/28 01:37:01;;;;;;;;;;;12.80;99.90;;;;;;5063689;28;19979;-79
2022/10/28 01:39:38;;;;;;;;;;;12.70;99.90;;;;;;5062833;28;19909;-76
2022/10/28 01:42:04;;;;;;;;;;;12.70;99.90;;;;;;5062607;28;20231;-77
2022/10/28 01:44:44;;;;;;;;;;;12.70;99.90;;;;;;5063878;28;19948;-76
2022/10/28 01:47:16;;;;;;;;;;;12.70;99.90;;;;;;5045453;28;19923;-76
2022/10/28 01:49:52;;;;;;;;;;;12.70;99.90;;;;;;5046001;28;19975;-76
2022/10/28 01:52:21;;;;;;;;;;;12.70;99.90;;;;;;5062263;28;19988;-76
2022/10/28 01:54:49;;;;;;;;;;;12.70;99.90;;;;;;5061535;28;19915;-77
2022/10/28 01:57:14;;;;;;;;;;;12.80;99.90;;;;;;5045041;28;19917;-77
2022/10/28 01:59:40;;;;;;;;;;;12.70;99.90;;;;;;5062387;28;19916;-77
2022/10/28 02:02:06;;;;;;;;;;;12.70;99.90;;;;;;5045624;28;20258;-77
2022/10/28 02:04:31;;;;;;;;;;;12.70;99.90;;;;;;5062508;28;20311;-77
2022/10/28 02:06:58;;;;;;;;;;;12.80;99.90;;;;;;5062271;28;19909;-77
2022/10/28 02:09:28;;;;;;;;;;;12.80;99.90;;;;;;5062493;28;19913;-77
2022/10/28 02:12:21;;;;;;;;;;;12.80;99.90;;;;;;5062327;28;19967;-77
2022/10/28 02:15:17;;;;;;;;;;;12.90;99.90;;;;;;5061477;28;20081;-77
2022/10/28 02:18:12;;;;;;;;;;;12.80;99.90;;;;;;5062647;28;19932;-78
2022/10/28 02:20:56;;;;;;;;;;;12.80;99.90;;;;;;5062226;28;19915;-78
2022/10/28 02:23:41;;;;;;;;;;;12.80;99.90;;;;;;5063276;28;19955;-77
2022/10/28 02:26:18;;;;;;;;;;;12.80;99.90;;;;;;5061756;28;19912;-77
2022/10/28 02:28:53;;;;;;;;;;;12.70;99.90;;;;;;5046507;28;19950;-77
2022/10/28 02:31:25;;;;;;;;;;;12.70;99.90;;;;;;5045641;28;19913;-77
2022/10/28 02:33:58;;;;;;;;;;;12.70;99.90;;;;;;5061882;28;19992;-77
2022/10/28 02:36:23;;;;;;;;;;;12.70;99.90;;;;;;5061485;28;19908;-77
2022/10/28 02:38:51;;;;;;;;;;;12.70;99.90;;;;;;5061502;28;19982;-77
2022/10/28 02:41:25;;;;;;;;;;;12.70;99.90;;;;;;5045178;28;19982;-77
2022/10/28 02:43:53;;;;;;;;;;;12.70;99.90;;;;;;5061553;28;19974;-77
2022/10/28 02:46:19;;;;;;;;;;;12.70;99.90;;;;;;5061044;28;19987;-77
2022/10/28 02:48:47;;;;;;;;;;;12.70;99.90;;;;;;5061398;28;19917;-77
2022/10/28 02:51:18;;;;;;;;;;;12.70;99.90;;;;;;5061337;28;19924;-77
2022/10/28 02:54:07;;;;;;;;;;;12.70;99.90;;;;;;5061402;28;19920;-77
2022/10/28 02:56:37;;;;;;;;;;;12.60;99.90;;;;;;5044766;28;19908;-77
2022/10/28 02:59:02;;;;;;;;;;;12.60;99.90;;;;;;5061296;28;19909;-77
2022/10/28 03:01:28;;;;;;;;;;;12.50;99.90;;;;;;5060985;28;19966;-77
2022/10/28 03:03:53;;;;;;;;;;;12.50;99.90;;;;;;5061578;28;19912;-77
2022/10/28 03:06:19;;;;;;;;;;;12.40;99.90;;;;;;5044298;28;19917;-77
2022/10/28 03:08:45;;;;;;;;;;;12.50;99.90;;;;;;5061454;28;19916;-76
2022/10/28 03:11:10;;;;;;;;;;;12.50;99.90;;;;;;5065369;28;19954;-77
2022/10/28 03:13:36;;;;;;;;;;;12.40;99.90;;;;;;5065319;28;19917;-77
2022/10/28 03:16:02;;;;;;;;;;;12.40;99.90;;;;;;5048177;28;19909;-76
2022/10/28 03:18:27;;;;;;;;;;;12.40;99.90;;;;;;5066471;28;19916;-77
2022/10/28 03:20:53;;;;;;;;;;;12.40;99.90;;;;;;5066336;28;19916;-77
2022/10/28 03:23:19;;;;;;;;;;;12.40;99.90;;;;;;5066378;28;19909;-76
2022/10/28 03:25:44;;;;;;;;;;;12.50;99.90;;;;;;5065104;28;19962;-77
2022/10/28 03:28:10;;;;;;;;;;;12.50;99.90;;;;;;5065971;28;19947;-77
2022/10/28 03:30:36;;;;;;;;;;;12.40;99.90;;;;;;5066266;28;19944;-77
2022/10/28 03:33:01;;;;;;;;;;;12.40;99.90;;;;;;5064722;28;19909;-77
2022/10/28 03:35:27;;;;;;;;;;;12.40;99.90;;;;;;5066127;28;19908;-76
2022/10/28 03:37:52;;;;;;;;;;;12.40;99.90;;;;;;5064477;28;19912;-76
2022/10/28 03:40:18;;;;;;;;;;;12.40;99.90;;;;;;5064792;28;19917;-76
2022/10/28 03:42:44;;;;;;;;;;;12.30;99.90;;;;;;5064825;28;19970;-76
2022/10/28 03:45:10;;;;;;;;;;;12.30;99.90;;;;;;5066456;28;20019;-78
2022/10/28 03:47:35;;;;;;;;;;;12.30;99.90;;;;;;5064690;28;20179;-78
2022/10/28 03:50:01;;;;;;;;;;;12.20;99.90;;;;;;5065268;28;19940;-78
2022/10/28 03:52:27;;;;;;;;;;;12.20;99.90;;;;;;5065361;28;20170;-77
2022/10/28 03:54:52;;;;;;;;;;;12.20;99.90;;;;;;5065203;28;19915;-78
2022/10/28 03:57:18;;;;;;;;;;;12.20;99.90;;;;;;5064851;28;19916;-78
2022/10/28 03:59:44;;;;;;;;;;;12.20;99.90;;;;;;5065187;28;20225;-78
2022/10/28 04:02:09;;;;;;;;;;;12.20;99.90;;;;;;5048160;28;19948;-78
2022/10/28 04:04:35;;;;;;;;;;;12.20;99.90;;;;;;5064722;28;19909;-77
2022/10/28 04:07:01;;;;;;;;;;;12.20;99.90;;;;;;5047593;28;19962;-78
2022/10/28 04:09:26;;;;;;;;;;;12.20;99.90;;;;;;5064736;28;19908;-78
2022/10/28 04:11:52;;;;;;;;;;;12.20;99.90;;;;;;5064579;28;19913;-77
2022/10/28 04:14:18;;;;;;;;;;;12.20;99.90;;;;;;5064772;28;19955;-77
2022/10/28 04:16:43;;;;;;;;;;;12.20;99.90;;;;;;5065224;28;19915;-78
2022/10/28 04:19:09;;;;;;;;;;;12.20;99.90;;;;;;5064509;28;19948;-77
2022/10/28 04:21:34;;;;;;;;;;;12.20;99.90;;;;;;5064289;28;20120;-77
2022/10/28 04:24:00;;;;;;;;;;;12.20;99.90;;;;;;5065202;28;19916;-77
2022/10/28 04:26:26;;;;;;;;;;;12.20;99.90;;;;;;5064166;28;19951;-78
2022/10/28 04:28:51;;;;;;;;;;;12.20;99.90;;;;;;5062939;28;19920;-75
2022/10/28 04:31:17;;;;;;;;;;;12.20;99.90;;;;;;5054715;28;19919;-76
2022/10/28 04:33:43;;;;;;;;;;;12.20;99.90;;;;;;5047614;28;19909;-76
2022/10/28 04:36:08;;;;;;;;;;;12.20;99.90;;;;;;5051811;28;19975;-76
2022/10/28 04:38:34;;;;;;;;;;;12.20;99.90;;;;;;5061945;28;19928;-76
2022/10/28 04:41:00;;;;;;;;;;;12.20;99.90;;;;;;5056412;28;19928;-75
2022/10/28 04:43:25;;;;;;;;;;;12.30;99.90;;;;;;5063676;28;19908;-76
2022/10/28 04:45:51;;;;;;;;;;;12.30;99.90;;;;;;5074568;28;19916;-75
2022/10/28 04:48:17;;;;;;;;;;;12.30;99.90;;;;;;5032540;28;20269;-76
2022/10/28 04:50:42;;;;;;;;;;;12.30;99.90;;;;;;5043936;28;20093;-75
2022/10/28 04:53:08;;;;;;;;;;;12.30;99.90;;;;;;5043862;28;19917;-76
2022/10/28 04:55:34;;;;;;;;;;;12.20;99.90;;;;;;5011445;28;19916;-77
2022/10/28 04:58:00;;;;;;;;;;;12.20;99.90;;;;;;5059796;28;20269;-76
2022/10/28 05:00:26;;;;;;;;;;;12.20;99.90;;;;;;5043628;28;19980;-75
2022/10/28 05:02:52;;;;;;;;;;;12.20;99.90;;;;;;5036434;28;19913;-76
2022/10/28 05:05:18;;;;;;;;;;;12.10;99.90;;;;;;5044615;28;20215;-75
2022/10/28 05:07:43;;;;;;;;;;;12.10;99.90;;;;;;5059460;28;20047;-76
2022/10/28 05:10:10;;;;;;;;;;;12.10;99.90;;;;;;5051635;28;19952;-76
2022/10/28 05:12:37;;;;;;;;;;;12.10;99.90;;;;;;5079460;28;19958;-76
2022/10/28 05:15:03;;;;;;;;;;;12.10;99.90;;;;;;5075949;28;20059;-76
2022/10/28 05:17:28;;;;;;;;;;;12.20;99.90;;;;;;5062331;28;19970;-76
2022/10/28 05:19:54;;;;;;;;;;;12.20;99.90;;;;;;5055638;28;19917;-76
2022/10/28 05:22:20;;;;;;;;;;;12.20;99.90;;;;;;5079660;28;19923;-76
2022/10/28 05:24:45;;;;;;;;;;;12.30;99.90;;;;;;5063955;28;19912;-76
2022/10/28 05:27:11;;;;;;;;;;;12.30;99.90;;;;;;5079467;28;19909;-75
2022/10/28 05:29:37;;;;;;;;;;;12.30;99.90;;;;;;5063889;28;20148;-76
2022/10/28 05:32:03;;;;;;;;;;;12.40;99.90;;;;;;5078461;28;19920;-76
2022/10/28 05:34:28;;;;;;;;;;;12.40;99.90;;;;;;5062340;28;19909;-76
2022/10/28 05:36:54;;;;;;;;;;;12.40;99.90;;;;;;5062960;28;19924;-75
2022/10/28 05:39:19;;;;;;;;;;;12.40;99.90;;;;;;5060515;28;19944;-77
2022/10/28 05:41:45;;;;;;;;;;;12.40;99.90;;;;;;5056913;28;19913;-73
2022/10/28 05:44:11;;;;;;;;;;;12.40;99.90;;;;;;5063767;28;19908;-76
2022/10/28 05:46:36;;;;;;;;;;;12.50;99.90;;;;;;5060147;28;19908;-76
2022/10/28 05:49:03;;;;;;;;;;;12.50;99.90;;;;;;5042160;28;19984;-76
2022/10/28 05:51:28;;;;;;;;;;;12.60;99.90;;;;;;5068488;28;19917;-76
2022/10/28 05:53:54;;;;;;;;;;;12.50;99.90;;;;;;5055911;28;20130;-76
2022/10/28 05:56:19;;;;;;;;;;;12.50;99.90;;;;;;5054759;28;20356;-76
2022/10/28 05:58:46;;;;;;;;;;;12.50;99.90;;;;;;5063085;28;19915;-76
2022/10/28 06:01:12;;;;;;;;;;;12.60;99.90;;;;;;5062609;28;19980;-75
2022/10/28 06:03:37;;;;;;;;;;;12.60;99.90;;;;;;5061930;28;19909;-77
2022/10/28 06:06:03;;;;;;;;;;;12.60;99.90;;;;;;5062964;28;19940;-77
2022/10/28 06:08:29;;;;;;;;;;;12.60;99.90;;;;;;5045537;28;19916;-77
2022/10/28 06:10:55;;;;;;;;;;;12.60;99.90;;;;;;5063050;28;20250;-77
2022/10/28 06:13:21;;;;;;;;;;;12.70;99.90;;;;;;5063216;28;19909;-77
2022/10/28 06:15:53;;;;;;;;;;;12.70;99.90;;;;;;5029095;28;19947;-76
2022/10/28 06:18:19;;;;;;;;;;;12.70;99.90;;;;;;5062110;28;19916;-78
2022/10/28 06:20:53;;;;;;;;;;;12.70;99.90;;;;;;5046336;28;19917;-78
2022/10/28 06:23:19;;;;;;;;;;;12.70;99.90;;;;;;5063841;28;19908;-79
2022/10/28 06:25:44;;;;;;;;;;;12.80;99.90;;;;;;5063988;28;19963;-78
2022/10/28 06:28:11;;;;;;;;;;;12.80;99.90;;;;;;5063048;28;19915;-78
2022/10/28 06:30:36;;;;;;;;;;;12.80;99.90;;;;;;5045784;28;19972;-78
2022/10/28 06:33:02;;;;;;;;;;;12.90;99.90;;;;;;5064153;28;19997;-78
2022/10/28 06:35:28;;;;;;;;;;;12.90;99.90;;;;;;5064563;28;19909;-78
2022/10/28 06:37:55;;;;;;;;;;;12.90;99.90;;;;;;5029227;28;19916;-78
2022/10/28 06:40:21;;;;;;;;;;;13.00;99.90;;;;;;5046035;28;20149;-78
2022/10/28 06:42:46;;;;;;;;;;;13.00;99.90;;;;;;5062440;28;19931;-78
2022/10/28 06:45:12;;;;;;;;;;;13.00;99.90;;;;;;5063464;28;20208;-78
2022/10/28 06:47:38;;;;;;;;;;;13.00;99.90;;;;;;5063250;28;19927;-78
2022/10/28 06:50:03;;;;;;;;;;;13.00;99.90;;;;;;5062570;28;19982;-78
2022/10/28 06:52:29;;;;;;;;;;;13.00;99.90;;;;;;5062285;28;19928;-78
2022/10/28 06:54:55;;;;;;;;;;;13.00;99.90;;;;;;5063918;28;19915;-79
2022/10/28 06:57:20;;;;;;;;;;;13.00;99.90;;;;;;5063507;28;19930;-79
2022/10/28 06:59:48;;;;;;;;;;;13.00;99.90;;;;;;5045773;28;19916;-79
2022/10/28 07:02:14;;;;;;;;;;;13.10;99.90;;;;;;5063153;28;20257;-79
2022/10/28 07:04:40;;;;;;;;;;;13.10;99.90;;;;;;5063539;28;19942;-79
2022/10/28 07:07:05;;;;;;;;;;;13.20;99.90;;;;;;5061914;28;19909;-79
2022/10/28 07:09:32;;;;;;;;;;;13.20;99.90;;;;;;5063467;28;20207;-79
2022/10/28 07:11:58;;;;;;;;;;;13.20;99.90;;;;;;5062257;28;19920;-79
2022/10/28 07:14:23;;;;;;;;;;;13.20;99.90;;;;;;5063066;28;19909;-79
2022/10/28 07:16:49;;;;;;;;;;;13.20;99.90;;;;;;5061843;28;19917;-79
2022/10/28 07:19:15;;;;;;;;;;;13.10;99.90;;;;;;5045242;28;19916;-79
2022/10/28 07:21:40;;;;;;;;;;;13.00;99.90;;;;;;5061807;28;19917;-79
2022/10/28 07:24:06;;;;;;;;;;;13.00;99.90;;;;;;5061859;28;19909;-78
2022/10/28 07:26:32;;;;;;;;;;;13.10;99.90;;;;;;5064352;28;19915;-79
2022/10/28 07:28:57;;;;;;;;;;;13.10;99.90;;;;;;5063096;28;19956;-79
2022/10/28 07:31:23;;;;;;;;;;;13.10;99.90;;;;;;5063408;28;20200;-80
2022/10/28 07:33:52;;;;;;;;;;;13.20;99.90;;;;;;5062756;28;20089;-79
2022/10/28 07:36:18;;;;;;;;;;;13.20;99.90;;;;;;5061363;28;19951;-78
2022/10/28 07:38:43;;;;;;;;;;;13.30;99.90;;;;;;5062208;28;19916;-77
2022/10/28 07:41:09;;;;;;;;;;;13.30;99.90;;;;;;5061369;28;19916;-78
2022/10/28 07:43:38;;;;;;;;;;;13.40;99.90;;;;;;5061459;28;19917;-79
2022/10/28 07:46:04;;;;;;;;;;;13.50;99.90;;;;;;5061400;28;19920;-78
2022/10/28 07:48:30;;;;;;;;;;;13.60;99.90;;;;;;5058718;28;19920;-78
2022/10/28 07:50:59;;;;;;;;;;;13.70;99.90;;;;;;5063073;28;19947;-78
2022/10/28 07:53:24;;;;;;;;;;;13.80;99.90;;;;;;5060604;28;19921;-80
2022/10/28 07:55:57;;;;;;;;;;;13.90;99.90;;;;;;5066817;28;19909;-79
2022/10/28 07:58:22;;;;;;;;;;;13.90;99.90;;;;;;5053588;28;19921;-79
2022/10/28 08:00:48;;;;;;;;;;;14.00;99.90;;;;;;5057522;28;20110;-79
2022/10/28 08:03:14;;;;;;;;;;;14.10;99.90;;;;;;5059782;28;19908;-80
2022/10/28 08:05:39;;;;;;;;;;;14.20;99.90;;;;;;5059936;28;19977;-79
2022/10/28 08:08:05;;;;;;;;;;;14.30;99.90;;;;;;5056736;28;19909;-79
2022/10/28 08:10:31;;;;;;;;;;;14.40;99.90;;;;;;5061886;28;19913;-79
2022/10/28 08:12:59;;;;;;;;;;;14.50;99.90;;;;;;5066987;28;19912;-79
2022/10/28 08:15:25;;;;;;;;;;;14.60;99.90;;;;;;5065117;28;19908;-79
2022/10/28 08:17:52;;;;;;;;;;;14.60;99.90;;;;;;5065173;28;19909;-79
2022/10/28 08:20:18;;;;;;;;;;;14.70;99.90;;;;;;5066048;28;19917;-79
2022/10/28 08:22:43;;;;;;;;;;;14.70;99.90;;;;;;5066153;28;19996;-79
2022/10/28 08:25:09;;;;;;;;;;;14.80;99.90;;;;;;5066518;28;19917;-78
2022/10/28 08:27:35;;;;;;;;;;;14.80;99.90;;;;;;5066386;28;19923;-78
2022/10/28 08:30:00;;;;;;;;;;;14.80;99.90;;;;;;5066635;28;19912;-78
2022/10/28 08:32:26;;;;;;;;;;;14.90;99.90;;;;;;5065272;28;20216;-79
2022/10/28 08:34:51;;;;;;;;;;;14.90;99.90;;;;;;5065321;28;20123;-79
2022/10/28 08:37:17;;;;;;;;;;;15.00;99.90;;;;;;5065991;28;19935;-79
2022/10/28 08:39:43;;;;;;;;;;;15.00;99.90;;;;;;5066681;28;19940;-78
2022/10/28 08:42:14;;;;;;;;;;;15.00;99.90;;;;;;5066209;28;19913;-79
2022/10/28 08:44:52;;;;;;;;;;;15.10;99.90;;;;;;5066242;28;20192;-79
2022/10/28 08:47:39;;;;;;;;;;;15.10;99.90;;;;;;5065513;28;19909;-79
2022/10/28 08:50:10;;;;;;;;;;;15.10;99.90;;;;;;5066295;28;19983;-78
2022/10/28 08:52:49;;;;;;;;;;;15.10;99.90;;;;;;5064798;28;19920;-79
2022/10/28 08:55:23;;;;;;;;;;;15.10;99.90;;;;;;5065008;28;19951;-80
2022/10/28 08:57:54;;;;;;;;;;;15.10;99.90;;;;;;5032530;28;19939;-81
2022/10/28 09:00:25;;;;;;;;;;;15.10;99.90;;;;;;5048760;28;19916;-80
2022/10/28 09:02:58;;;;;;;;;;;15.20;99.90;;;;;;5062062;28;19909;-79
2022/10/28 09:05:25;;;;;;;;;;;15.30;99.90;;;;;;5045773;28;19909;-80
2022/10/28 09:07:50;;;;;;;;;;;15.40;99.90;;;;;;5043886;28;19916;-80
2022/10/28 09:10:17;;;;;;;;;;;15.60;99.90;;;;;;5064986;28;19910;-79
2022/10/28 09:12:51;;;;;;;;;;;15.70;99.90;;;;;;5065102;28;19975;-79
2022/10/28 09:15:38;;;;;;;;;;;15.90;99.90;;;;;;5064875;28;19984;-79
2022/10/28 09:18:12;;;;;;;;;;;16.00;99.90;;;;;;5048811;28;19916;-78
2022/10/28 09:20:46;;;;;;;;;;;16.20;99.90;;;;;;5064479;28;19912;-78
2022/10/28 09:23:22;;;;;;;;;;;16.30;99.90;;;;;;5063937;28;20124;-78
2022/10/28 09:26:00;;;;;;;;;;;16.40;99.90;;;;;;5063987;28;19958;-79
2022/10/28 09:28:29;;;;;;;;;;;16.50;99.90;;;;;;5064836;28;19908;-78
2022/10/28 09:31:19;;;;;;;;;;;16.70;99.90;;;;;;5063301;28;19917;-78
2022/10/28 09:33:52;;;;;;;;;;;16.80;99.90;;;;;;5062687;28;19996;-77
2022/10/28 09:36:22;;;;;;;;;;;16.90;99.90;;;;;;5046692;28;20356;-77
2022/10/28 09:38:49;;;;;;;;;;;17.10;99.90;;;;;;5046110;28;19948;-77
2022/10/28 09:41:26;;;;;;;;;;;17.20;99.90;;;;;;5062727;28;19917;-77
2022/10/28 09:43:54;;;;;;;;;;;17.30;99.90;;;;;;5062681;28;20111;-77
2022/10/28 09:46:19;;;;;;;;;;;17.50;99.90;;;;;;5062238;28;19917;-77
2022/10/28 09:48:54;;;;;;;;;;;17.60;99.90;;;;;;5062159;28;19947;-77
2022/10/28 09:51:33;;;;;;;;;;;17.70;99.90;;;;;;5062485;28;19932;-77
2022/10/28 09:53:59;;;;;;;;;;;18.00;99.90;;;;;;5062470;28;19908;-77
2022/10/28 09:56:26;;;;;;;;;;;18.10;99.90;;;;;;5062117;28;20004;-77
2022/10/28 09:58:52;;;;;;;;;;;18.40;99.90;;;;;;5062339;28;19909;-77
2022/10/28 10:01:18;;;;;;;;;;;18.50;99.90;;;;;;5062310;28;19908;-77
2022/10/28 10:03:44;;;;;;;;;;;18.70;99.90;;;;;;5045460;28;19913;-77
2022/10/28 10:06:16;;;;;;;;;;;18.90;99.90;;;;;;5062129;28;20127;-77
2022/10/28 10:08:41;;;;;;;;;;;19.10;99.90;;;;;;5062419;28;19940;-77
2022/10/28 10:11:16;;;;;;;;;;;19.30;99.90;;;;;;5062350;28;19951;-77
2022/10/28 10:13:42;;;;;;;;;;;19.40;99.90;;;;;;5029924;28;19916;-77
2022/10/28 10:16:38;;;;;;;;;;;19.60;99.90;;;;;;5063244;28;19975;-77
2022/10/28 10:19:04;;;;;;;;;;;19.90;99.90;;;;;;5062083;28;19916;-77
2022/10/28 10:21:46;;;;;;;;;;;20.20;99.90;;;;;;5062353;28;19920;-77
2022/10/28 10:24:32;;;;;;;;;;;20.40;99.90;;;;;;5062135;28;19986;-77
2022/10/28 10:27:03;;;;;;;;;;;20.70;99.90;;;;;;5061846;28;20104;-78
2022/10/28 10:29:28;;;;;;;;;;;21.00;99.90;;;;;;5061914;28;19951;-77
2022/10/28 10:32:04;;;;;;;;;;;21.30;99.90;;;;;;5059976;28;20131;-77
2022/10/28 10:34:30;;;;;;;;;;;21.40;99.90;;;;;;5054982;28;20105;-78
2022/10/28 10:36:55;;;;;;;;;;;21.50;99.90;;;;;;5047676;28;19917;-77
2022/10/28 10:39:33;;;;;;;;;;;21.40;99.90;;;;;;5025531;28;19972;-77
2022/10/28 10:41:59;;;;;;;;;;;21.30;99.90;;;;;;5042054;28;19955;-77
2022/10/28 10:44:30;;;;;;;;;;;21.30;99.90;;;;;;5041952;28;20208;-77
2022/10/28 10:46:59;;;;;;;;;;;21.40;99.90;;;;;;5041981;28;19951;-77
2022/10/28 10:49:25;;;;;;;;;;;21.40;99.90;;;;;;5042906;28;19917;-77
2022/10/28 10:51:58;;;;;;;;;;;21.30;99.90;;;;;;5058745;28;19917;-77
2022/10/28 10:54:24;;;;;;;;;;;21.30;99.90;;;;;;5062060;28;19909;-77
2022/10/28 10:56:49;;;;;;;;;;;21.40;99.90;;;;;;5061711;28;20262;-78
2022/10/28 10:59:21;;;;;;;;;;;21.40;99.90;;;;;;5062187;28;19908;-79
2022/10/28 11:01:46;;;;;;;;;;;21.40;99.90;;;;;;5063009;28;19916;-79
2022/10/28 11:04:17;;;;;;;;;;;21.40;99.90;;;;;;5061955;28;19909;-77
2022/10/28 11:06:42;;;;;;;;;;;21.50;99.90;;;;;;5062917;28;19951;-80
2022/10/28 11:09:27;;;;;;;;;;;21.40;99.90;;;;;;5041906;28;20128;-78
2022/10/28 11:11:54;;;;;;;;;;;21.30;99.90;;;;;;5061911;28;19936;-78
2022/10/28 11:14:23;;;;;;;;;;;21.20;99.90;;;;;;5061459;28;20235;-77
2022/10/28 11:16:53;;;;;;;;;;;21.10;99.90;;;;;;5044957;28;20196;-78
2022/10/28 11:19:20;;;;;;;;;;;21.10;99.90;;;;;;5061548;28;19909;-78
2022/10/28 11:22:11;;;;;;;;;;;21.10;99.90;;;;;;5061937;28;19913;-78
2022/10/28 11:24:46;;;;;;;;;;;21.10;99.90;;;;;;5062198;28;19912;-78
2022/10/28 11:27:33;;;;;;;;;;;21.10;99.90;;;;;;5060501;28;19983;-78
2022/10/28 11:29:58;;;;;;;;;;;21.20;99.90;;;;;;5051390;28;19917;-78
2022/10/28 11:32:45;;;;;;;;;;;21.30;99.90;;;;;;5065692;28;19927;-78
2022/10/28 11:35:14;;;;;;;;;;;21.40;99.90;;;;;;5065930;28;19909;-78
2022/10/28 11:37:58;;;;;;;;;;;21.50;99.90;;;;;;5066004;28;19921;-78
2022/10/28 11:40:45;;;;;;;;;;;21.60;99.90;;;;;;5065799;28;19967;-78
2022/10/28 11:43:18;;;;;;;;;;;21.60;99.90;;;;;;5064200;28;19909;-78
2022/10/28 11:45:56;;;;;;;;;;;21.70;99.90;;;;;;5065345;28;19908;-78
2022/10/28 11:48:45;;;;;;;;;;;21.70;99.90;;;;;;5047037;28;19938;-78
2022/10/28 11:51:17;;;;;;;;;;;21.80;99.90;;;;;;5064263;28;19917;-77
2022/10/28 11:54:34;;;;;;;;;;;21.90;99.90;;;;;;5065236;28;19908;-77
2022/10/28 11:57:08;;;;;;;;;;;22.10;99.90;;;;;;5063543;28;19917;-78
2022/10/28 12:00:15;;;;;;;;;;;22.40;99.90;;;;;;5058144;28;19920;-78
2022/10/28 12:02:46;;;;;;;;;;;22.70;99.90;;;;;;5053905;28;20255;-77
2022/10/28 12:05:25;;;;;;;;;;;23.30;99.90;;;;;;5052396;28;19915;-77
2022/10/28 12:08:29;;;;;;;;;;;23.90;99.90;;;;;;5049453;28;20085;-78
2022/10/28 12:11:16;;;;;;;;;;;24.30;99.90;;;;;;5037497;28;19921;-77
2022/10/28 12:13:56;;;;;;;;;;;24.80;99.90;;;;;;5063291;28;19915;-78
2022/10/28 12:16:44;;;;;;;;;;;25.20;99.90;;;;;;5054968;28;19947;-78
2022/10/28 12:19:13;;;;;;;;;;;25.90;99.90;;;;;;5051668;28;20120;-77
2022/10/28 12:21:44;;;;;;;;;;;26.70;99.90;;;;;;5027926;28;19909;-78
2022/10/28 12:24:15;;;;;;;;;;;27.30;97.60;;;;;;5028034;28;19915;-78
2022/10/28 12:26:46;;;;;;;;;;;27.80;95.90;;;;;;5027288;28;19909;-78
2022/10/28 12:29:22;;;;;;;;;;;28.60;94.30;;;;;;5029753;28;19913;-78
2022/10/28 12:32:06;;;;;;;;;;;29.50;90.40;;;;;;5054222;28;19996;-78
2022/10/28 12:34:34;;;;;;;;;;;30.30;86.00;;;;;;5061637;28;19912;-78
2022/10/28 12:37:48;;;;;;;;;;;31.10;77.50;;;;;;4970449;28;1802380;-78
2022/10/28 12:40:39;;;;;;;;;;;31.20;71.10;;;;;;5053576;28;20290;-78
2022/10/28 12:43:10;;;;;;;;;;;30.40;72.10;;;;;;5054543;28;19917;-78
2022/10/28 12:45:37;;;;;;;;;;;28.80;77.20;;;;;;5028426;28;19977;-78
2022/10/28 12:48:27;;;;;;;;;;;27.60;86.20;;;;;;5027243;28;20302;-79
2022/10/28 12:51:15;;;;;;;;;;;26.70;92.80;;;;;;5038698;28;19975;-78
2022/10/28 12:53:57;;;;;;;;;;;25.80;96.90;;;;;;5055955;28;19913;-78
2022/10/28 12:56:35;;;;;;;;;;;25.20;99.90;;;;;;5043644;28;20201;-78
2022/10/28 12:59:26;;;;;;;;;;;24.70;99.90;;;;;;5060228;28;19916;-78
2022/10/28 13:01:52;;;;;;;;;;;24.30;99.90;;;;;;5059019;28;19962;-78
2022/10/28 13:04:18;;;;;;;;;;;23.90;99.90;;;;;;5064083;28;19909;-78
2022/10/28 13:07:08;;;;;;;;;;;23.70;99.90;;;;;;5063286;28;19909;-78
2022/10/28 13:09:39;;;;;;;;;;;23.50;99.90;;;;;;5064595;28;19915;-78
2022/10/28 13:12:14;;;;;;;;;;;23.40;99.90;;;;;;5046820;28;19920;-78
2022/10/28 13:15:10;;;;;;;;;;;23.30;99.90;;;;;;5064467;28;19971;-78
2022/10/28 13:18:04;;;;;;;;;;;23.70;99.90;;;;;;5064100;28;19976;-78
2022/10/28 13:21:00;;;;;;;;;;;25.30;99.90;;;;;;5064586;28;19996;-78
2022/10/28 13:23:32;;;;;;;;;;;27.60;99.90;;;;;;5064629;28;19980;-78
2022/10/28 13:26:21;;;;;;;;;;;29.80;91.50;;;;;;5066234;28;19915;-79
2022/10/28 13:28:47;;;;;;;;;;;30.90;79.90;;;;;;5065628;28;19909;-79
2022/10/28 13:31:14;;;;;;;;;;;32.60;65.00;;;;;;5066318;28;20111;-79
2022/10/28 13:34:05;;;;;;;;;;;33.40;56.80;;;;;;5064734;28;20223;-79
2022/10/28 13:36:37;;;;;;;;;;;33.40;56.20;;;;;;5063848;28;19961;-78
2022/10/28 13:39:31;;;;;;;;;;;33.00;52.40;;;;;;5064252;28;19927;-78
2022/10/28 13:42:12;;;;;;;;;;;32.30;55.70;;;;;;5066506;28;19984;-78
2022/10/28 13:45:00;;;;;;;;;;;31.10;61.60;;;;;;5063912;28;19917;-78
2022/10/28 13:47:35;;;;;;;;;;;29.80;69.70;;;;;;5062393;28;19912;-79
2022/10/28 13:50:06;;;;;;;;;;;28.50;80.00;;;;;;5062548;28;19915;-79
2022/10/28 13:52:42;;;;;;;;;;;27.70;91.10;;;;;;5061902;28;19917;-78
2022/10/28 13:55:20;;;;;;;;;;;27.20;93.00;;;;;;5062628;28;19909;-78
2022/10/28 13:57:47;;;;;;;;;;;26.70;95.30;;;;;;5062099;28;19913;-79
2022/10/28 14:00:20;;;;;;;;;;;26.30;91.10;;;;;;5062505;28;19987;-78
2022/10/28 14:02:52;;;;;;;;;;;25.90;95.30;;;;;;5063626;28;19943;-78
2022/10/28 14:05:19;;;;;;;;;;;25.50;96.70;;;;;;5062370;28;19908;-78
2022/10/28 14:08:01;;;;;;;;;;;25.20;96.80;;;;;;5062267;28;19917;-78
2022/10/28 14:10:31;;;;;;;;;;;25.00;99.90;;;;;;5062545;28;19924;-78
2022/10/28 14:13:01;;;;;;;;;;;24.80;99.90;;;;;;5062374;28;19948;-78
2022/10/28 14:15:46;;;;;;;;;;;24.60;99.20;;;;;;5063691;28;19909;-78
2022/10/28 14:18:12;;;;;;;;;;;24.30;99.90;;;;;;5068450;28;19909;-78
2022/10/28 14:20:47;;;;;;;;;;;24.10;99.90;;;;;;5069747;28;19915;-78
2022/10/28 14:23:19;;;;;;;;;;;23.90;99.90;;;;;;5070373;28;19909;-78
2022/10/28 14:25:52;;;;;;;;;;;23.70;99.90;;;;;;5065972;28;19916;-80
2022/10/28 14:28:29;;;;;;;;;;;23.60;99.90;;;;;;5064991;28;20084;-79
2022/10/28 14:31:10;;;;;;;;;;;23.50;99.90;;;;;;5064769;28;19939;-77
2022/10/28 14:33:42;;;;;;;;;;;23.30;99.90;;;;;;5063234;28;19909;-78
2022/10/28 14:36:12;;;;;;;;;;;23.20;99.90;;;;;;5063338;28;19909;-78
2022/10/28 14:39:16;;;;;;;;;;;23.10;99.90;;;;;;5062262;28;20194;-78